Flight Track Log - Related Links

Times and Time Zones

All times are in EDT time to prevent confusion due to time zone crossing. See the N832R flight status page for this flight to view local times or setup timezone preferences in your user account.

Time Position Orientation Groundspeed Altitude Reporting Facility
EDT Latitude Longitude Course Direction KTS MPH feet Rate Location/Type
Mon 08:09:39 PM 26.7278 -79.9942 336° Northwest 212 244 6,800  Level Miami Center
Mon 08:10:39 PM 26.7983 -80.0056 352° North 189 217 9,600 2,250 Climbing Miami Center
Mon 08:11:39 PM 26.8281 -80.0856 293° West 206 237 11,300 2,000 Climbing Miami Center
Mon 08:12:39 PM 26.8383 -80.1767 277° West 275 316 13,600 1,350 Climbing Miami Center
Mon 08:13:39 PM 26.8550 -80.2772 281° West 317 365 14,000 1,050 Climbing Miami Center
Mon 08:14:00 PM 26.9538 -80.3685 336° Northwest  Level FlightAware Approximate
Mon 08:14:39 PM 26.9200 -80.3558 313° West 313 360 15,700  Level Miami Center
Mon 08:15:39 PM 26.9942 -80.3953 335° Northwest 311 358 18,400 2,750 Climbing Miami Center
Mon 08:16:39 PM 27.0725 -80.4328 337° Northwest 311 358 21,200 2,250 Climbing Miami Center
Mon 08:17:39 PM 27.1550 -80.4725 337° Northwest 311 358 22,900 1,000 Climbing Miami Center
Mon 08:18:39 PM 27.2347 -80.5383 324° Northwest 329 379 23,200 1,400 Climbing Miami Center
Mon 08:19:39 PM 27.3189 -80.5969 328° Northwest 343 395 25,700 2,350 Climbing Miami Center
Mon 08:20:39 PM 27.4119 -80.6303 342° North 343 395 27,900 2,050 Climbing Miami Center
Mon 08:21:39 PM 27.4967 -80.6636 341° North 333 383 29,800 1,150 Climbing Miami Center
Mon 08:22:39 PM 27.5939 -80.6972 343° North 334 384 30,200 1,150 Climbing Miami Center
Mon 08:23:39 PM 27.6758 -80.7539 329° Northwest 339 390 32,100 2,050 Climbing Miami Center
Mon 08:24:39 PM 27.7475 -80.8128 324° Northwest 339 390 34,300 2,150 Climbing Miami Center
Mon 08:25:39 PM 27.8167 -80.8714 323° Northwest 326 375 36,400 1,800 Climbing Miami Center
Mon 08:26:39 PM 27.8839 -80.9303 322° Northwest 309 356 37,900 1,300 Climbing Miami Center
Mon 08:27:39 PM 27.9469 -80.9936 318° Northwest 304 350 39,000 1,050 Climbing Miami Center
Mon 08:28:39 PM 28.0100 -81.0522 321° Northwest 297 342 40,000 1,000 Climbing Miami Center
Mon 08:29:39 PM 28.0789 -81.1206 319° Northwest 302 348 41,000 500 Climbing Miami Center
Mon 08:30:39 PM 28.1478 -81.1844 321° Northwest 307 353 41,000  Level Miami Center
Mon 08:31:39 PM 28.2167 -81.2531 319° Northwest 318 366 41,000  Level Miami Center
Mon 08:32:39 PM 28.2814 -81.3192 318° Northwest 338 389 41,000  Level Miami Center
Mon 08:33:39 PM 28.3522 -81.3928 318° Northwest 343 395 41,000  Level Miami Center
Mon 08:34:39 PM 28.4289 -81.4739 317° Northwest 343 395 41,000  Level Miami Center
Mon 08:35:39 PM 28.5036 -81.5525 317° Northwest 349 402 41,000  Level Miami Center
Mon 08:36:39 PM 28.5783 -81.6264 319° Northwest 354 407 41,000  Level Miami Center
Mon 08:37:39 PM 28.6725 -81.6778 334° Northwest 359 413 41,000  Level Miami Center
Mon 08:38:28 PM 28.7619 -81.6894 353° North 373 429 41,000  Level Jacksonville Center
Mon 08:39:28 PM 28.8747 -81.6953 357° North 379 436 41,000  Level Jacksonville Center
Mon 08:40:28 PM 28.9856 -81.7106 353° North 390 449 41,000  Level Jacksonville Center
Mon 08:41:28 PM 29.0714 -81.7261 351° North 396 456 41,000  Level Jacksonville Center
Mon 08:42:28 PM 29.1925 -81.7603 346° North 379 436 41,000  Level Jacksonville Center
Mon 08:43:28 PM 29.2994 -81.7947 344° North 384 442 41,000  Level Jacksonville Center
Mon 08:44:28 PM 29.4019 -81.8269 345° North 384 442 41,000  Level Jacksonville Center
Mon 08:45:28 PM 29.5086 -81.8569 346° North 379 436 41,000  Level Jacksonville Center
Mon 08:46:28 PM 29.6133 -81.8844 347° North 379 436 41,000  Level Jacksonville Center
Mon 08:47:28 PM 29.7158 -81.9169 345° North 379 436 41,000  Level Jacksonville Center
Mon 08:48:28 PM 29.8225 -81.9494 345° North 379 436 41,000  Level Jacksonville Center
Mon 08:49:28 PM 29.9272 -81.9794 346° North 379 436 41,000  Level Jacksonville Center
Mon 08:50:28 PM 30.0336 -82.0025 349° North 379 436 41,000  Level Jacksonville Center
Mon 08:51:28 PM 30.1425 -82.0350 346° North 379 436 41,000  Level Jacksonville Center
Mon 08:52:28 PM 30.2472 -82.0678 345° North 384 442 41,000  Level Jacksonville Center
Mon 08:53:28 PM 30.3539 -82.0981 346° North 384 442 41,000 250 Level Jacksonville Center
Mon 08:54:28 PM 30.4606 -82.1286 346° North 397 457 41,500 650 Climbing Jacksonville Center
Mon 08:55:28 PM 30.5506 -82.1642 341° North 374 430 42,300 700 Climbing Jacksonville Center
Mon 08:56:28 PM 30.6508 -82.1947 345° North 374 430 42,900 350 Climbing Jacksonville Center
Mon 08:57:28 PM 30.7492 -82.2231 346° North 369 425 43,000 50 Climbing Jacksonville Center
Mon 08:58:28 PM 30.8475 -82.2514 346° North 369 425 43,000  Level Jacksonville Center
Mon 08:59:28 PM 30.9500 -82.2822 346° North 364 419 43,000  Level Jacksonville Center
Mon 09:00:28 PM 31.0481 -82.3156 344° North 364 419 43,000  Level Jacksonville Center
Mon 09:02:31 PM 31.2639 -82.3772 346° North 357 411 43,000  Level Atlanta Center
Mon 09:03:31 PM 31.3706 -82.4069 347° North 369 425 43,000  Level Atlanta Center
Mon 09:04:31 PM 31.4733 -82.4392 345° North 375 432 43,000  Level Atlanta Center
Mon 09:05:31 PM 31.5758 -82.4692 346° North 375 432 43,000  Level Atlanta Center
Mon 09:06:31 PM 31.6786 -82.5014 345° North 375 432 43,000  Level Atlanta Center
Mon 09:07:31 PM 31.7792 -82.5339 345° North 375 432 43,000  Level Atlanta Center
Mon 09:08:31 PM 31.8778 -82.5667 344° North 375 432 43,000  Level Atlanta Center
Mon 09:09:31 PM 31.9844 -82.5967 347° North 375 432 43,000  Level Atlanta Center
Mon 09:10:31 PM 32.0892 -82.6292 345° North 380 437 43,000  Level Atlanta Center
Mon 09:11:31 PM 32.1897 -82.6594 346° North 380 437 43,000  Level Atlanta Center
Mon 09:12:31 PM 32.2944 -82.6900 346° North 380 437 43,000  Level Atlanta Center
Mon 09:13:31 PM 32.3969 -82.7228 345° North 380 437 43,000  Level Atlanta Center
Mon 09:14:31 PM 32.5017 -82.7581 344° North 380 437 43,000  Level Atlanta Center
Mon 09:15:31 PM 32.5961 -82.7864 346° North 374 430 43,000  Level Atlanta Center
Mon 09:16:31 PM 32.6986 -82.8194 345° North 379 436 43,000  Level Atlanta Center
Mon 09:17:31 PM 32.8033 -82.8525 345° North 379 436 43,000  Level Atlanta Center
Mon 09:18:31 PM 32.9100 -82.8858 345° North 379 436 43,000  Level Atlanta Center
Mon 09:19:31 PM 33.0147 -82.9192 345° North 379 436 43,000  Level Atlanta Center
Mon 09:20:31 PM 33.1361 -82.9547 346° North 390 449 43,000  Level Atlanta Center
Mon 09:21:31 PM 33.2408 -82.9883 345° North 390 449 43,000  Level Atlanta Center
Mon 09:22:31 PM 33.3369 -83.0169 346° North 390 449 43,000  Level Atlanta Center
Mon 09:23:31 PM 33.4417 -83.0531 344° North 390 449 43,000  Level Atlanta Center
Mon 09:24:31 PM 33.5483 -83.0842 346° North 390 449 43,000  Level Atlanta Center
Mon 09:25:31 PM 33.6531 -83.1206 344° North 396 456 43,000  Level Atlanta Center
Mon 09:26:31 PM 33.7597 -83.1517 346° North 396 456 43,000  Level Atlanta Center
Mon 09:27:31 PM 33.8664 -83.1883 344° North 396 456 43,000  Level Atlanta Center
Mon 09:28:31 PM 33.9689 -83.2222 345° North 396 456 43,000  Level Atlanta Center
Mon 09:29:31 PM 34.0797 -83.2564 346° North 396 456 43,000  Level Atlanta Center
Mon 09:30:31 PM 34.1947 -83.2928 345° North 396 456 43,000  Level Atlanta Center
Mon 09:31:31 PM 34.3036 -83.3297 344° North 396 456 43,000  Level Atlanta Center
Mon 09:32:31 PM 34.4144 -83.3639 346° North 396 456 43,000  Level Atlanta Center
Mon 09:33:31 PM 34.5231 -83.4008 344° North 401 461 43,000  Level Atlanta Center
Mon 09:34:31 PM 34.6275 -83.4331 346° North 395 455 43,000  Level Atlanta Center
Mon 09:35:31 PM 34.7278 -83.4650 345° North 395 455 43,000  Level Atlanta Center
Mon 09:36:31 PM 34.8344 -83.5047 343° North 395 455 43,000  Level Atlanta Center
Mon 09:37:31 PM 34.9411 -83.5422 344° North 395 455 43,000  Level Atlanta Center
Mon 09:38:31 PM 35.0519 -83.5794 345° North 400 460 43,000  Level Atlanta Center
Mon 09:39:31 PM 35.1583 -83.6119 346° North 400 460 43,000  Level Atlanta Center
Mon 09:40:31 PM 35.2692 -83.6469 346° North 400 460 43,000  Level Atlanta Center
Mon 09:41:31 PM 35.3756 -83.6847 344° North 395 455 43,000  Level Atlanta Center
Mon 09:42:31 PM 35.4800 -83.7175 346° North 395 455 43,000  Level Atlanta Center
Mon 09:43:31 PM 35.5844 -83.7553 344° North 395 455 43,000  Level Atlanta Center
Mon 09:44:31 PM 35.6889 -83.7908 345° North 395 455 43,000  Level Atlanta Center
Mon 09:45:31 PM 35.7931 -83.8236 346° North 390 449 43,000  Level Atlanta Center
Mon 09:48:02 PM 36.0658 -83.9161 345° North 388 447 43,000  Level Indianapolis Center
Mon 09:49:03 PM 36.1703 -83.9511 345° North 388 447 43,000  Level Indianapolis Center
Mon 09:50:04 PM 36.2742 -83.9869 344° North 389 448 43,000  Level Indianapolis Center
Mon 09:51:05 PM 36.3789 -84.0222 345° North 389 448 43,000  Level Indianapolis Center
Mon 09:52:06 PM 36.4822 -84.0581 344° North 388 447 43,000  Level Indianapolis Center
Mon 09:53:08 PM 36.5944 -84.0969 344° North 387 445 43,000  Level Indianapolis Center
Mon 09:54:09 PM 36.6981 -84.1328 345° North 384 442 43,000  Level Indianapolis Center
Mon 09:55:10 PM 36.8039 -84.1700 344° North 389 448 43,000  Level Indianapolis Center
Mon 09:56:11 PM 36.9081 -84.2061 345° North 387 445 43,000  Level Indianapolis Center
Mon 09:57:12 PM 37.0131 -84.2417 345° North 388 447 43,000  Level Indianapolis Center
Mon 09:58:14 PM 37.1172 -84.2783 344° North 390 449 43,000  Level Indianapolis Center
Mon 09:59:15 PM 37.2242 -84.3164 344° North 396 456 43,000  Level Indianapolis Center
Mon 10:00:16 PM 37.3300 -84.3550 344° North 396 456 43,000  Level Indianapolis Center
Mon 10:01:17 PM 37.4556 -84.3986 345° North 399 459 43,000  Level Indianapolis Center
Mon 10:02:18 PM 37.5625 -84.4364 344° North 398 458 43,000  Level Indianapolis Center
Mon 10:03:19 PM 37.6708 -84.4736 345° North 401 461 43,000  Level Indianapolis Center
Mon 10:04:20 PM 37.7789 -84.5114 345° North 402 463 43,000  Level Indianapolis Center
Mon 10:05:21 PM 37.8853 -84.5533 343° North 400 460 43,000  Level Indianapolis Center
Mon 10:06:22 PM 37.9953 -84.5914 345° North 406 467 43,000  Level Indianapolis Center
Mon 10:07:24 PM 38.1042 -84.6303 344° North 406 467 43,000  Level Indianapolis Center
Mon 10:08:25 PM 38.2150 -84.6686 345° North 410 472 43,000  Level Indianapolis Center
Mon 10:09:26 PM 38.3253 -84.7078 344° North 410 472 43,000  Level Indianapolis Center
Mon 10:10:27 PM 38.4367 -84.7472 344° North 412 474 43,000  Level Indianapolis Center
Mon 10:11:28 PM 38.5453 -84.7872 344° North 407 468 43,000  Level Indianapolis Center
Mon 10:12:29 PM 38.6578 -84.8294 344° North 406 467 43,000  Level Indianapolis Center
Mon 10:13:30 PM 38.7669 -84.8700 344° North 405 466 43,000  Level Indianapolis Center
Mon 10:14:31 PM 38.8786 -84.9097 345° North 411 473 43,000 -295 Level Indianapolis Center
Mon 10:15:32 PM 38.9892 -84.9525 343° North 413 475 42,400 -738 Descending Indianapolis Center
Mon 10:16:33 PM 39.0994 -84.9939 344° North 411 473 41,500 -934 Descending Indianapolis Center
Mon 10:17:34 PM 39.2242 -85.0389 344° North 401 461 40,500 -984 Descending Indianapolis Center
Mon 10:18:35 PM 39.3283 -85.0781 344° North 390 449 39,500 -1,033 Descending Indianapolis Center
Mon 10:19:36 PM 39.4339 -85.1167 344° North 392 451 38,400 -1,033 Descending Indianapolis Center
Mon 10:20:37 PM 39.5406 -85.1564 344° North 396 456 37,400 -1,033 Descending Indianapolis Center
Mon 10:21:38 PM 39.6453 -85.1958 344° North 393 452 36,300 -1,131 Descending Indianapolis Center
Mon 10:22:39 PM 39.7506 -85.2369 343° North 393 452 35,100 -1,180 Descending Indianapolis Center
Mon 10:23:40 PM 39.8550 -85.2767 344° North 391 450 33,900 -1,240 Descending Indianapolis Center
Mon 10:24:40 PM 39.9622 -85.3156 344° North 396 456 32,600 -1,339 Descending Indianapolis Center
Mon 10:25:41 PM 40.0683 -85.3558 344° North 397 457 31,200 -1,475 Descending Indianapolis Center
Mon 10:26:42 PM 40.1767 -85.3989 343° North 403 464 29,600 -1,610 Descending Indianapolis Center
Mon 10:27:03 PM 40.2122 -85.4103 346° North 404 465 29,000 -1,610 Descending Chicago Center
Mon 10:28:04 PM 40.3228 -85.4525 344° North 411 473 27,400 -1,463 Descending Chicago Center
Mon 10:29:06 PM 40.4325 -85.4953 343° North 409 471 26,000 -1,415 Descending Chicago Center
Mon 10:30:07 PM 40.5408 -85.5378 343° North 405 466 24,500 -1,574 Descending Chicago Center
Mon 10:31:08 PM 40.6633 -85.5847 344° North 391 450 22,800 -1,672 Descending Chicago Center
Mon 10:32:09 PM 40.7600 -85.6233 343° North 377 434 21,100 -1,770 Descending Chicago Center
Mon 10:33:10 PM 40.8575 -85.6606 344° North 367 422 19,200 -1,951 Descending Chicago Center
Mon 10:34:12 PM 40.9528 -85.6986 343° North 359 413 17,100 -2,049 Descending Chicago Center
Mon 10:35:13 PM 41.0436 -85.7353 343° North 344 396 15,000 -2,016 Descending Chicago Center
Mon 10:36:14 PM 41.1281 -85.7683 344° North 318 366 13,000 -1,770 Descending Chicago Center
Mon 10:37:15 PM 41.2103 -85.8000 344° North 307 353 11,400 -984 Descending Chicago Center
Mon 10:38:16 PM 41.2831 -85.8300 343° North 278 320 11,000 -197 Descending Chicago Center
Mon 10:39:17 PM 41.3483 -85.8561 343° North 248 285 11,000  Level Chicago Center
Mon 10:40:18 PM 41.4019 -85.8767 344° North 204 235 11,000 -390 Level Chicago Center
Mon 10:41:20 PM 41.4611 -85.8989 344° North 215 247 10,200 -1,366 Descending Chicago Center
Mon 10:42:21 PM 41.5286 -85.9036 357° North 241 277 8,200 -1,869 Descending Chicago Center
Mon 10:43:22 PM 41.5892 -85.8414 38° Northeast 233 268 6,400 -1,820 Descending Chicago Center
Mon 10:44:23 PM 41.6342 -85.7892 41° Northeast 224 258 4,500 -1,463 Descending Chicago Center
Mon 10:45:25 PM 41.6861 -85.8022 349° North 202 232 3,400 -689 Descending Chicago Center
Mon 10:46:25 PM 41.7175 -85.8386 319° Northwest 170 196 3,100 -545 Descending Chicago Center
Mon 10:47:26 PM 41.7219 -85.8892 277° West 148 170 2,300 -689 Descending Chicago Center
Mon 10:48:27 PM 41.7211 -85.9325 269° West 129 148 1,700 -590 Descending Chicago Center
Mon 10:49:28 PM 41.7206 -85.9750 269° West 121 139 1,100 -341 Descending Chicago Center
Mon 10:50:30 PM 41.7192 -86.0150 267° West 118 136 1,000 -97 Descending Chicago Center

Login

Don't have an account? Register now (free) for customized features, flight alerts, and more!